createdAt,value
2019-05-10T00:02:00.590Z,17.63
2019-05-10T00:07:21.675Z,18.60
2019-05-10T00:12:46.612Z,22.07
2019-05-10T00:17:50.990Z,20.60
2019-05-10T00:28:42.254Z,18.80
2019-05-10T00:33:45.087Z,20.97
2019-05-10T00:38:48.083Z,17.97
2019-05-10T00:43:51.481Z,16.87
2019-05-10T00:48:54.290Z,21.50
2019-05-10T00:53:57.066Z,21.77
2019-05-10T00:58:59.894Z,19.40
2019-05-10T01:04:02.685Z,19.60
2019-05-10T01:09:06.236Z,18.20
2019-05-10T01:14:09.321Z,22.37
2019-05-10T01:19:12.049Z,22.53
2019-05-10T01:24:14.790Z,21.37
2019-05-10T01:29:18.722Z,22.23
2019-05-10T01:34:21.771Z,20.37
2019-05-10T01:44:59.612Z,18.13
2019-05-10T01:50:03.827Z,22.87
2019-05-10T01:55:09.617Z,21.73
2019-05-10T02:00:14.250Z,26.93
2019-05-10T02:05:17.390Z,25.30
2019-05-10T02:10:22.222Z,25.30
2019-05-10T02:15:25.134Z,29.60
2019-05-10T02:20:28.532Z,24.00
2019-05-10T02:25:31.453Z,25.10
2019-05-10T02:30:34.655Z,27.50
2019-05-10T02:35:43.043Z,27.70
2019-05-10T02:40:45.838Z,28.40
2019-05-10T02:45:50.139Z,24.83
2019-05-10T02:50:53.030Z,26.30
2019-05-10T02:55:59.008Z,29.73
2019-05-10T03:01:04.357Z,26.03
2019-05-10T03:06:07.314Z,29.97
2019-05-10T03:11:13.306Z,24.73
2019-05-10T03:16:19.168Z,24.57
2019-05-10T03:21:22.951Z,27.37
2019-05-10T03:26:26.033Z,24.03
2019-05-10T03:31:29.110Z,25.77
2019-05-10T03:36:32.257Z,30.27
2019-05-10T03:41:36.293Z,25.23
2019-05-10T03:46:40.971Z,23.93
2019-05-10T03:51:44.503Z,22.23
2019-05-10T03:56:47.769Z,23.13
2019-05-10T04:01:51.991Z,28.10
2019-05-10T04:06:54.963Z,24.37
2019-05-10T04:11:57.751Z,25.87
2019-05-10T04:17:01.717Z,26.23
2019-05-10T04:22:04.817Z,30.67
2019-05-10T04:27:29.529Z,29.30
2019-05-10T04:32:16.524Z,24.77
2019-05-10T04:37:19.532Z,24.10
2019-05-10T04:42:22.482Z,23.00
2019-05-10T04:47:26.667Z,29.10
2019-05-10T04:52:29.627Z,24.80
2019-05-10T04:57:49.260Z,24.37
2019-05-10T05:02:39.205Z,17.17
2019-05-10T05:07:42.227Z,20.57
2019-05-10T05:12:45.227Z,20.13
2019-05-10T05:17:48.205Z,14.63
2019-05-10T05:22:51.326Z,17.27
2019-05-10T05:28:07.435Z,15.43
2019-05-10T05:32:59.153Z,14.60
2019-05-10T05:38:01.908Z,14.33
2019-05-10T05:43:08.145Z,10.83
2019-05-10T05:48:09.409Z,18.33
2019-05-10T05:53:12.296Z,10.57
2019-05-10T05:58:25.584Z,12.13
2019-05-10T06:03:27.524Z,13.30
2019-05-10T06:08:25.356Z,13.90
2019-05-10T06:13:30.310Z,11.83
2019-05-10T06:18:32.808Z,15.80
2019-05-10T06:23:36.911Z,16.07
2019-05-10T06:33:44.988Z,12.60
2019-05-10T06:38:49.070Z,12.47
2019-05-10T06:43:53.162Z,11.60
2019-05-10T06:49:07.252Z,12.37
2019-05-10T06:54:12.860Z,12.57
2019-05-10T06:59:19.313Z,10.63
2019-05-10T07:04:21.457Z,12.53
2019-05-10T07:09:26.074Z,11.93
2019-05-10T07:14:29.123Z,11.00
2019-05-10T07:19:34.865Z,10.90
2019-05-10T07:24:36.834Z,9.63
2019-05-10T07:29:42.956Z,9.97
2019-05-10T07:34:48.814Z,11.23
2019-05-10T07:39:51.433Z,9.80
2019-05-10T07:44:54.709Z,11.45
2019-05-10T07:55:41.336Z,9.03
2019-05-10T08:00:46.650Z,9.63
2019-05-10T08:05:55.046Z,8.98
2019-05-10T08:10:54.233Z,10.93
2019-05-10T08:15:59.316Z,8.45
2019-05-10T08:21:17.694Z,9.00
2019-05-10T08:26:10.941Z,12.18
2019-05-10T08:31:15.418Z,8.28
2019-05-10T08:36:21.694Z,10.93
2019-05-10T08:41:24.160Z,10.28
2019-05-10T08:46:35.024Z,12.58
2019-05-10T08:51:32.260Z,7.83
2019-05-10T08:56:36.452Z,9.90
2019-05-10T09:01:48.976Z,6.70
2019-05-10T09:06:47.521Z,9.40
2019-05-10T09:11:48.806Z,7.62
2019-05-10T09:17:00.756Z,7.87
2019-05-10T09:21:56.375Z,9.03
2019-05-10T09:26:59.163Z,9.97
2019-05-10T09:32:06.272Z,8.90
2019-05-10T09:37:08.058Z,11.57
2019-05-10T09:42:25.114Z,18.83
2019-05-10T09:47:15.913Z,19.40
2019-05-10T09:52:19.652Z,19.33
2019-05-10T09:57:22.599Z,22.17
2019-05-10T10:02:33.441Z,22.63
2019-05-10T10:07:33.552Z,23.13
2019-05-10T10:12:37.306Z,22.23
2019-05-10T10:17:42.412Z,21.87
2019-05-10T10:22:49.681Z,21.80
2019-05-10T10:27:49.725Z,25.00
2019-05-10T10:32:52.699Z,21.57
2019-05-10T10:37:57.502Z,21.23
2019-05-10T10:43:00.070Z,19.77
2019-05-10T10:48:10.706Z,16.73
2019-05-10T10:53:08.101Z,14.90
2019-05-10T10:58:11.054Z,14.27
2019-05-10T11:03:14.027Z,16.97
2019-05-10T11:08:16.907Z,13.73
2019-05-10T11:13:40.158Z,16.37
2019-05-10T11:18:24.432Z,12.73
2019-05-10T11:23:33.926Z,13.10
2019-05-10T11:28:38.609Z,11.90
2019-05-10T11:33:36.708Z,12.65
2019-05-10T11:38:41.763Z,12.07
2019-05-10T11:43:44.320Z,11.60
2019-05-10T11:48:47.389Z,11.13
2019-05-10T11:53:55.563Z,14.85
2019-05-10T11:58:55.550Z,14.93
2019-05-10T12:03:58.530Z,14.07
2019-05-10T12:09:04.662Z,13.83
2019-05-10T12:14:07.669Z,12.90
2019-05-10T12:19:19.857Z,14.37
2019-05-10T12:26:12.078Z,12.20
2019-05-10T12:29:21.253Z,15.13
2019-05-10T12:34:24.411Z,19.07
2019-05-10T12:39:27.393Z,15.93
2019-05-10T12:44:33.138Z,16.83
2019-05-10T12:49:36.474Z,16.30
2019-05-10T12:54:41.413Z,21.03
2019-05-10T12:59:44.498Z,22.27
2019-05-10T13:04:52.441Z,22.87
2019-05-10T13:10:02.581Z,21.37
2019-05-10T13:14:57.804Z,21.47
2019-05-10T13:20:00.787Z,22.30
2019-05-10T13:25:05.073Z,23.77
2019-05-10T13:30:08.799Z,21.90
2019-05-10T13:35:15.076Z,24.20
2019-05-10T13:40:17.989Z,23.90
2019-05-10T13:45:20.741Z,19.07
2019-05-10T13:50:23.624Z,20.43
2019-05-10T13:55:26.610Z,19.77
2019-05-10T14:00:34.480Z,24.23
2019-05-10T14:05:34.281Z,18.53
2019-05-10T14:10:37.234Z,24.17
2019-05-10T14:15:40.165Z,22.30
2019-05-10T14:20:43.316Z,17.47
2019-05-10T14:25:46.166Z,16.93
2019-05-10T14:30:56.974Z,16.50
2019-05-10T14:36:01.078Z,12.88
2019-05-10T14:41:03.904Z,10.25
2019-05-10T14:46:05.472Z,12.85
2019-05-10T14:51:11.735Z,10.75
2019-05-10T14:56:15.351Z,11.95
2019-05-10T15:01:18.420Z,12.03
2019-05-10T15:06:21.510Z,11.22
2019-05-10T15:11:26.366Z,11.18
2019-05-10T15:16:30.862Z,12.17
2019-05-10T15:21:34.642Z,11.13
2019-05-10T15:26:43.807Z,8.63
2019-05-10T15:31:43.579Z,7.67
2019-05-10T15:36:46.552Z,7.97
2019-05-10T15:41:53.550Z,6.27
2019-05-10T15:46:54.258Z,7.70
2019-05-10T15:52:16.318Z,5.40
2019-05-10T15:57:02.516Z,4.13
2019-05-10T16:02:05.699Z,3.93
2019-05-10T16:07:09.456Z,5.50
2019-05-10T16:12:13.579Z,2.47
2019-05-10T16:17:22.942Z,3.43
2019-05-10T16:22:25.239Z,1.80
2019-05-10T16:27:34.139Z,5.90
2019-05-10T16:32:36.292Z,2.23
2019-05-10T16:37:39.343Z,3.83
2019-05-10T16:42:42.579Z,1.80
2019-05-10T16:47:45.675Z,4.33
2019-05-10T16:52:48.823Z,6.17
2019-05-10T16:57:51.742Z,4.80
2019-05-10T17:02:54.844Z,4.13
2019-05-10T17:07:58.907Z,3.97
2019-05-10T17:13:04.901Z,4.90
2019-05-10T17:18:10.696Z,4.60
2019-05-10T17:23:13.067Z,8.43
2019-05-10T17:28:16.038Z,9.03
2019-05-10T17:33:19.959Z,7.50
2019-05-10T17:38:22.728Z,14.00
2019-05-10T17:43:25.492Z,6.93
2019-05-10T17:48:28.161Z,9.47
2019-05-10T17:53:31.003Z,7.47
2019-05-10T17:58:35.070Z,3.90
2019-05-10T18:03:38.073Z,10.53
2019-05-10T18:08:40.976Z,6.50
2019-05-10T18:16:41.984Z,7.23
2019-05-10T18:21:41.879Z,5.73
2019-05-10T18:26:45.584Z,5.90
2019-05-10T18:31:55.911Z,9.33
2019-05-10T18:36:53.421Z,5.50
2019-05-10T18:41:56.501Z,8.43
2019-05-10T18:46:59.602Z,7.47
2019-05-10T18:52:04.577Z,7.27
2019-05-10T18:57:12.215Z,8.27
2019-05-10T19:02:11.875Z,8.40
2019-05-10T19:07:16.205Z,12.17
2019-05-10T19:12:22.089Z,11.77
2019-05-10T19:17:23.615Z,14.33
2019-05-10T19:22:33.556Z,15.97
2019-05-10T19:27:38.719Z,7.27
2019-05-10T19:32:42.148Z,7.03
2019-05-10T19:37:45.412Z,8.60
2019-05-10T19:42:49.510Z,13.63
2019-05-10T19:47:55.531Z,12.50
2019-05-10T19:52:58.424Z,10.77
2019-05-10T19:58:02.490Z,6.97
2019-05-10T20:03:06.046Z,11.80
2019-05-10T20:08:08.896Z,11.67
2019-05-10T20:13:12.086Z,11.73
2019-05-10T20:18:14.938Z,6.90
2019-05-10T20:23:17.896Z,7.90
2019-05-10T20:28:20.684Z,9.70
2019-05-10T20:33:26.324Z,8.23
2019-05-10T20:38:29.809Z,7.80
2019-05-10T20:43:32.760Z,10.27
2019-05-10T20:48:35.664Z,8.90
2019-05-10T20:53:38.761Z,16.10
2019-05-10T20:58:41.905Z,14.43
2019-05-10T21:03:44.666Z,10.83
2019-05-10T21:08:47.825Z,10.73
2019-05-10T21:13:50.851Z,12.30
2019-05-10T21:24:40.631Z,13.03
2019-05-10T21:29:44.554Z,18.43
2019-05-10T21:34:47.329Z,21.20
2019-05-10T21:39:51.015Z,12.53
2019-05-10T21:44:53.902Z,11.57
2019-05-10T21:49:56.962Z,14.47
2019-05-10T21:54:59.861Z,17.40
2019-05-10T22:00:02.835Z,18.17
2019-05-10T22:05:07.443Z,17.37
2019-05-10T22:10:10.458Z,15.77
2019-05-10T22:15:13.235Z,16.13
2019-05-10T22:20:15.891Z,17.43
2019-05-10T22:25:18.559Z,20.10
2019-05-10T22:30:21.259Z,13.27
2019-05-10T22:35:24.061Z,17.73
2019-05-10T22:40:26.935Z,19.83
2019-05-10T22:45:29.755Z,28.70
2019-05-10T22:50:32.460Z,22.53
2019-05-10T22:55:35.189Z,20.43
2019-05-10T23:00:37.925Z,15.33
2019-05-10T23:05:40.618Z,25.30
2019-05-10T23:10:43.465Z,19.90
2019-05-10T23:15:48.061Z,21.73
2019-05-10T23:20:50.855Z,20.73
2019-05-10T23:25:53.852Z,21.27
2019-05-10T23:30:56.643Z,17.53
2019-05-10T23:35:59.417Z,18.57
2019-05-10T23:41:02.263Z,26.87
2019-05-10T23:46:05.056Z,22.97
2019-05-10T23:51:07.952Z,31.57
2019-05-10T23:56:10.733Z,27.17
